createdAt,value
2023-02-02T00:01:23.009Z,99333.66
2023-02-02T00:03:50.828Z,99335.63
2023-02-02T00:06:19.282Z,99334.94
2023-02-02T00:08:46.316Z,99335.13
2023-02-02T00:11:13.368Z,99336.27
2023-02-02T00:13:40.014Z,99337.49
2023-02-02T00:16:25.737Z,99339.17
2023-02-02T00:18:53.840Z,99340.87
2023-02-02T00:21:20.785Z,99339.80
2023-02-02T00:23:47.846Z,99334.05
2023-02-02T00:26:14.899Z,99327.08
2023-02-02T00:28:41.978Z,99326.17
2023-02-02T00:31:09.445Z,99325.10
2023-02-02T00:33:36.361Z,99322.97
2023-02-02T00:36:04.212Z,99319.82
2023-02-02T00:38:31.983Z,99322.08
2023-02-02T00:40:58.720Z,99319.98
2023-02-02T00:43:25.405Z,99303.55
2023-02-02T00:45:52.392Z,99314.71
2023-02-02T00:48:19.227Z,99313.06
2023-02-02T00:50:45.774Z,99313.05
2023-02-02T00:53:12.682Z,99314.73
2023-02-02T00:55:40.350Z,99310.48
2023-02-02T00:58:07.994Z,99306.96
2023-02-02T01:00:35.136Z,99307.14
2023-02-02T01:03:03.828Z,99298.02
2023-02-02T01:05:32.170Z,99300.92
2023-02-02T01:07:59.169Z,99301.61
2023-02-02T01:10:27.222Z,99298.48
2023-02-02T01:12:54.110Z,99291.73
2023-02-02T01:15:20.965Z,99289.49
2023-02-02T01:17:49.372Z,99287.67
2023-02-02T01:20:18.774Z,99285.61
2023-02-02T01:22:46.967Z,99288.48
2023-02-02T01:25:15.044Z,99289.64
2023-02-02T01:27:43.267Z,99288.44
2023-02-02T01:30:10.832Z,99286.71
2023-02-02T01:32:37.797Z,99284.64
2023-02-02T01:35:04.747Z,99290.95
2023-02-02T01:37:31.470Z,99290.23
2023-02-02T01:39:58.412Z,99297.34
2023-02-02T01:42:25.860Z,99297.77
2023-02-02T01:44:55.558Z,99300.04
2023-02-02T01:47:31.338Z,99295.88
2023-02-02T01:49:58.405Z,99300.05
2023-02-02T01:52:28.592Z,99303.47
2023-02-02T01:55:03.973Z,99301.87
2023-02-02T01:57:58.715Z,99301.67
2023-02-02T02:00:27.250Z,99277.36
2023-02-02T02:03:00.126Z,99307.64
2023-02-02T02:05:35.123Z,99305.77
2023-02-02T02:08:16.978Z,99307.00
2023-02-02T02:10:43.805Z,99318.98
2023-02-02T02:13:12.235Z,99317.10
2023-02-02T02:16:18.914Z,99319.41
2023-02-02T02:19:01.787Z,99320.31
2023-02-02T02:22:04.118Z,99318.70
2023-02-02T02:25:08.387Z,99316.08
2023-02-02T02:28:09.050Z,99317.79
2023-02-02T02:30:54.110Z,99313.72
2023-02-02T02:33:56.717Z,99308.25
2023-02-02T02:36:49.052Z,99314.72
2023-02-02T02:39:31.522Z,99312.49
2023-02-02T02:42:04.321Z,99306.98
2023-02-02T02:44:33.228Z,99309.80
2023-02-02T02:47:00.402Z,99308.31
2023-02-02T02:49:28.003Z,99311.15
2023-02-02T02:51:56.121Z,99311.70
2023-02-02T02:54:35.505Z,99312.10
2023-02-02T02:57:32.000Z,99304.70
2023-02-02T03:00:19.471Z,99305.60
2023-02-02T03:03:11.433Z,99305.16
2023-02-02T03:06:02.607Z,99302.83
2023-02-02T03:08:39.476Z,99306.20
2023-02-02T03:11:09.317Z,99311.86
2023-02-02T03:13:36.365Z,99310.42
2023-02-02T03:16:04.243Z,99310.53
2023-02-02T03:18:32.552Z,99313.58
2023-02-02T03:20:59.433Z,99316.85
2023-02-02T03:23:26.725Z,99320.09
2023-02-02T03:25:54.286Z,99320.39
2023-02-02T03:28:23.532Z,99324.31
2023-02-02T03:30:51.461Z,99320.59
2023-02-02T03:33:18.954Z,99314.58
2023-02-02T03:35:45.673Z,99323.27
2023-02-02T03:38:12.634Z,99324.59
2023-02-02T03:40:40.229Z,99326.76
2023-02-02T03:43:07.642Z,99324.08
2023-02-02T03:45:35.081Z,99319.30
2023-02-02T03:48:05.234Z,99323.60
2023-02-02T03:50:33.094Z,99320.80
2023-02-02T03:53:00.161Z,99318.50
2023-02-02T03:55:27.081Z,99316.88
2023-02-02T03:57:53.610Z,99311.17
2023-02-02T04:00:20.796Z,99319.39
2023-02-02T04:02:47.730Z,99318.65
2023-02-02T04:05:14.460Z,99322.81
2023-02-02T04:07:41.220Z,99319.93
2023-02-02T04:10:08.836Z,99319.73
2023-02-02T04:12:35.660Z,99301.79
2023-02-02T04:15:02.781Z,99306.22
2023-02-02T04:17:29.530Z,99316.95
2023-02-02T04:19:57.942Z,99318.33
2023-02-02T04:22:25.791Z,99319.86
2023-02-02T04:24:53.250Z,99320.36
2023-02-02T04:27:19.985Z,99318.44
2023-02-02T04:29:46.871Z,99318.77
2023-02-02T04:32:17.397Z,99319.66
2023-02-02T04:34:44.080Z,99318.79
2023-02-02T04:37:11.263Z,99325.09
2023-02-02T04:39:37.995Z,99319.05
2023-02-02T04:42:04.856Z,99313.61
2023-02-02T04:44:32.035Z,99319.41
2023-02-02T04:46:58.822Z,99316.28
2023-02-02T04:49:25.540Z,99313.67
2023-02-02T04:51:52.173Z,99312.27
2023-02-02T04:54:18.942Z,99310.86
2023-02-02T04:56:45.575Z,99313.69
2023-02-02T04:59:12.402Z,99313.86
2023-02-02T05:01:39.247Z,99301.73
2023-02-02T05:04:06.058Z,99318.98
2023-02-02T05:06:32.941Z,99321.26
2023-02-02T05:09:00.608Z,99319.83
2023-02-02T05:11:27.423Z,99315.45
2023-02-02T05:13:54.247Z,99313.90
2023-02-02T05:16:22.564Z,99316.48
2023-02-02T05:18:50.884Z,99316.10
2023-02-02T05:21:17.707Z,99315.02
2023-02-02T05:23:44.555Z,99310.65
2023-02-02T05:26:17.044Z,99310.79
2023-02-02T05:28:44.263Z,99309.19
2023-02-02T05:31:11.302Z,99309.52
2023-02-02T05:33:37.964Z,99303.76
2023-02-02T05:36:05.362Z,99302.34
2023-02-02T05:38:32.315Z,99297.44
2023-02-02T05:40:59.603Z,99299.98
2023-02-02T05:43:28.633Z,99290.48
2023-02-02T05:45:56.338Z,99286.59
2023-02-02T05:48:23.210Z,99294.59
2023-02-02T05:51:00.283Z,99291.81
2023-02-02T05:53:29.179Z,99295.65
2023-02-02T05:55:55.720Z,99280.77
2023-02-02T05:58:22.547Z,99291.58
2023-02-02T06:00:49.225Z,99289.27
2023-02-02T06:03:16.053Z,99289.30
2023-02-02T06:05:42.904Z,99278.83
2023-02-02T06:08:09.624Z,99285.46
2023-02-02T06:10:39.413Z,99275.02
2023-02-02T06:13:06.179Z,99273.27
2023-02-02T06:15:34.163Z,99273.67
2023-02-02T06:18:01.605Z,99293.96
2023-02-02T06:20:28.773Z,99293.40
2023-02-02T06:22:55.467Z,99296.38
2023-02-02T06:25:22.833Z,99296.98
2023-02-02T06:27:49.740Z,99295.44
2023-02-02T06:30:16.923Z,99289.09
2023-02-02T06:32:43.495Z,99285.09
2023-02-02T06:35:10.448Z,99275.97
2023-02-02T06:37:38.547Z,99276.83
2023-02-02T06:40:06.950Z,99275.77
2023-02-02T06:42:33.854Z,99275.46
2023-02-02T06:45:00.821Z,99276.19
2023-02-02T06:47:27.575Z,99272.73
2023-02-02T06:49:54.391Z,99271.84
2023-02-02T06:52:21.186Z,99272.89
2023-02-02T06:54:47.869Z,99267.56
2023-02-02T06:57:14.507Z,99267.13
2023-02-02T06:59:41.484Z,99268.20
2023-02-02T07:02:12.693Z,99265.20
2023-02-02T07:04:39.775Z,99267.48
2023-02-02T07:07:06.846Z,99267.33
2023-02-02T07:09:34.738Z,99267.79
2023-02-02T07:12:01.764Z,99265.55
2023-02-02T07:14:28.636Z,99268.04
2023-02-02T07:16:55.288Z,99268.89
2023-02-02T07:19:21.968Z,99264.34
2023-02-02T07:21:49.048Z,99261.83
2023-02-02T07:24:15.966Z,99263.84
2023-02-02T07:26:42.772Z,99266.62
2023-02-02T07:29:13.554Z,99265.08
2023-02-02T07:31:40.444Z,99264.27
2023-02-02T07:34:07.607Z,99258.05
2023-02-02T07:36:35.114Z,99261.52
2023-02-02T07:39:04.094Z,99261.30
2023-02-02T07:41:30.942Z,99259.86
2023-02-02T07:43:57.858Z,99264.50
2023-02-02T07:46:24.701Z,99262.91
2023-02-02T07:48:55.108Z,99265.19
2023-02-02T07:51:23.370Z,99267.00
2023-02-02T07:53:52.832Z,99268.48
2023-02-02T07:56:25.049Z,99273.28
2023-02-02T07:58:54.433Z,99261.92
2023-02-02T08:01:22.555Z,99276.11
2023-02-02T08:03:50.093Z,99279.14
2023-02-02T08:06:28.191Z,99267.92
2023-02-02T08:08:55.069Z,99275.50
2023-02-02T08:11:23.330Z,99273.34
2023-02-02T08:13:52.399Z,99275.23
2023-02-02T08:16:19.528Z,99278.44
2023-02-02T08:18:46.845Z,99278.08
2023-02-02T08:21:14.414Z,99271.89
2023-02-02T08:23:41.999Z,99278.50
2023-02-02T08:26:10.710Z,99281.86
2023-02-02T08:28:39.022Z,99287.95
2023-02-02T08:31:15.101Z,99288.05
2023-02-02T08:33:42.456Z,99285.23
2023-02-02T08:36:18.552Z,99290.08
2023-02-02T08:38:46.010Z,99296.09
2023-02-02T08:41:15.948Z,99297.41
2023-02-02T08:43:43.614Z,99298.20
2023-02-02T08:46:12.451Z,99301.23
2023-02-02T08:48:39.735Z,99300.11
2023-02-02T08:51:09.560Z,99305.09
2023-02-02T08:53:36.518Z,99305.16
2023-02-02T08:56:06.065Z,99305.73
2023-02-02T08:58:33.904Z,99307.55
2023-02-02T09:01:19.048Z,99309.16
2023-02-02T09:03:46.431Z,99309.52
2023-02-02T09:06:16.456Z,99308.92
2023-02-02T09:08:44.319Z,99311.27
2023-02-02T09:11:14.373Z,99307.77
2023-02-02T09:13:42.407Z,99314.85
2023-02-02T09:16:11.239Z,99321.55
2023-02-02T09:18:39.446Z,99322.16
2023-02-02T09:21:08.943Z,99322.08
2023-02-02T09:23:38.660Z,99327.34
2023-02-02T09:26:18.185Z,99332.14
2023-02-02T09:28:48.030Z,99337.29
2023-02-02T09:31:15.748Z,99339.16
2023-02-02T09:33:42.751Z,99345.59
2023-02-02T09:36:22.304Z,99350.83
2023-02-02T09:38:50.824Z,99355.30
2023-02-02T09:41:29.799Z,99364.21
2023-02-02T09:44:02.381Z,99368.77
2023-02-02T09:46:50.845Z,99358.13
2023-02-02T09:49:23.224Z,99378.74
2023-02-02T09:51:57.000Z,99388.16
2023-02-02T09:54:55.590Z,99389.23
2023-02-02T09:57:30.823Z,99392.51
2023-02-02T09:59:59.149Z,99397.33
2023-02-02T10:02:45.469Z,99401.95
2023-02-02T10:05:22.792Z,99402.45
2023-02-02T10:07:56.188Z,99410.64
2023-02-02T10:10:32.866Z,99419.11
2023-02-02T10:13:13.521Z,99418.20
2023-02-02T10:16:22.106Z,99409.37
2023-02-02T10:19:02.820Z,99426.10
2023-02-02T10:21:45.751Z,99429.42
2023-02-02T10:24:22.718Z,99436.29
2023-02-02T10:26:53.608Z,99440.30
2023-02-02T10:29:48.397Z,99439.61
2023-02-02T10:32:21.951Z,99443.05
2023-02-02T10:35:19.909Z,99448.26
2023-02-02T10:38:10.056Z,99448.02
2023-02-02T10:40:48.964Z,99451.45
2023-02-02T10:43:47.046Z,99456.15
2023-02-02T10:46:30.040Z,99464.11
2023-02-02T10:49:39.973Z,99469.32
2023-02-02T10:52:10.511Z,99475.13
2023-02-02T10:54:55.788Z,99483.13
2023-02-02T10:57:53.266Z,99486.67
2023-02-02T11:00:23.303Z,99489.52
2023-02-02T11:02:52.537Z,99479.77
2023-02-02T11:05:46.429Z,99499.95
2023-02-02T11:08:20.410Z,99503.93
2023-02-02T11:10:52.268Z,99513.36
2023-02-02T11:13:27.517Z,99516.38
2023-02-02T11:16:16.436Z,99519.05
2023-02-02T11:18:44.383Z,99520.78
2023-02-02T11:21:32.185Z,99526.52
2023-02-02T11:24:07.093Z,99526.56
2023-02-02T11:26:49.787Z,99529.05
2023-02-02T11:29:39.848Z,99529.50
2023-02-02T11:32:32.295Z,99533.38
2023-02-02T11:35:02.094Z,99533.05
2023-02-02T11:37:30.374Z,99536.98
2023-02-02T11:40:23.906Z,99541.08
2023-02-02T11:42:52.457Z,99546.08
2023-02-02T11:45:29.014Z,99551.71
2023-02-02T11:48:02.193Z,99553.35
2023-02-02T11:50:29.039Z,99554.13
2023-02-02T11:52:59.496Z,99558.23
2023-02-02T11:55:29.744Z,99561.48
2023-02-02T11:58:24.439Z,99567.73
2023-02-02T12:01:03.099Z,99573.61
2023-02-02T12:03:32.821Z,99576.15
2023-02-02T12:06:22.002Z,99582.41
2023-02-02T12:08:49.897Z,99590.87
2023-02-02T12:11:47.957Z,99593.54
2023-02-02T12:14:24.717Z,99595.07
2023-02-02T12:17:12.352Z,99596.58
2023-02-02T12:20:07.098Z,99603.79
2023-02-02T12:23:11.003Z,99605.81
2023-02-02T12:25:56.319Z,99613.39
2023-02-02T12:28:49.063Z,99619.73
2023-02-02T12:31:35.206Z,99623.75
2023-02-02T12:34:06.286Z,99630.25
2023-02-02T12:36:39.033Z,99631.10
2023-02-02T12:39:33.975Z,99641.46
2023-02-02T12:42:33.371Z,99651.77
2023-02-02T12:45:09.686Z,99662.27
2023-02-02T12:47:49.716Z,99673.89
2023-02-02T12:50:42.145Z,99680.93
2023-02-02T12:53:27.918Z,99685.53
2023-02-02T12:56:04.363Z,99694.80
2023-02-02T12:58:55.696Z,99705.41
2023-02-02T13:01:38.803Z,99714.40
2023-02-02T13:04:22.542Z,99730.60
2023-02-02T13:06:58.210Z,99725.09
2023-02-02T13:09:57.941Z,99735.92
2023-02-02T13:12:26.322Z,99728.67
2023-02-02T13:14:58.065Z,99747.77
2023-02-02T13:17:27.938Z,99751.72
2023-02-02T13:20:03.934Z,99754.05
2023-02-02T13:22:45.122Z,99758.07
2023-02-02T13:25:57.173Z,99759.58
2023-02-02T13:28:42.024Z,99754.06
2023-02-02T13:31:26.992Z,99769.02
2023-02-02T13:34:20.254Z,99775.30
2023-02-02T13:36:54.267Z,99773.56
2023-02-02T13:39:33.111Z,99770.17
2023-02-02T13:42:02.304Z,99784.44
2023-02-02T13:44:38.359Z,99784.63
2023-02-02T13:47:11.079Z,99789.09
2023-02-02T13:49:44.663Z,99790.42
2023-02-02T13:52:40.220Z,99795.12
2023-02-02T13:55:28.740Z,99799.69
2023-02-02T13:58:16.182Z,99802.09
2023-02-02T14:01:08.891Z,99787.64
2023-02-02T14:03:39.484Z,99810.75
2023-02-02T14:06:11.310Z,99798.55
2023-02-02T14:08:48.816Z,99819.86
2023-02-02T14:11:20.662Z,99832.31
2023-02-02T14:14:08.600Z,99834.77
2023-02-02T14:16:35.586Z,99843.46
2023-02-02T14:19:16.615Z,99848.29
2023-02-02T14:21:43.495Z,99855.19
2023-02-02T14:24:25.909Z,99862.10
2023-02-02T14:26:58.632Z,99845.38
2023-02-02T14:29:30.605Z,99863.86
2023-02-02T14:31:59.706Z,99871.72
2023-02-02T14:34:35.566Z,99878.34
2023-02-02T14:37:13.113Z,99887.34
2023-02-02T14:39:54.255Z,99895.05
2023-02-02T14:42:49.090Z,99902.25
2023-02-02T14:45:25.350Z,99910.39
2023-02-02T14:48:00.931Z,99919.20
2023-02-02T14:50:42.252Z,99926.90
2023-02-02T14:53:12.726Z,99935.30
2023-02-02T14:55:57.331Z,99933.38
2023-02-02T14:58:33.696Z,99947.84
2023-02-02T15:01:09.818Z,99953.56
2023-02-02T15:03:48.332Z,99961.89
2023-02-02T15:06:35.361Z,99965.42
2023-02-02T15:09:26.098Z,99978.12
2023-02-02T15:12:00.825Z,99983.82
2023-02-02T15:14:43.650Z,99994.38
2023-02-02T15:17:41.200Z,99998.20
2023-02-02T15:20:23.932Z,100006.87
2023-02-02T15:23:06.655Z,100009.30
2023-02-02T15:25:41.016Z,100006.11
2023-02-02T15:28:45.274Z,100027.20
2023-02-02T15:31:31.844Z,100045.27
2023-02-02T15:34:22.276Z,100059.14
2023-02-02T15:36:56.123Z,100070.75
2023-02-02T15:39:42.592Z,100075.50
2023-02-02T15:42:52.503Z,100079.77
2023-02-02T15:45:29.118Z,100087.18
2023-02-02T15:48:04.928Z,100094.27
2023-02-02T15:50:32.111Z,100106.71
2023-02-02T15:52:58.819Z,100115.98
2023-02-02T15:55:35.233Z,100122.66
2023-02-02T15:58:03.377Z,100128.83
2023-02-02T16:00:33.156Z,100137.21
2023-02-02T16:03:03.417Z,100140.38
2023-02-02T16:05:36.210Z,100151.71
2023-02-02T16:08:14.977Z,100156.61
2023-02-02T16:10:41.770Z,100163.59
2023-02-02T16:13:21.040Z,100174.27
2023-02-02T16:15:55.329Z,100181.81
2023-02-02T16:18:22.169Z,100192.13
2023-02-02T16:20:49.553Z,100194.73
2023-02-02T16:23:25.514Z,100197.02
2023-02-02T16:25:55.396Z,100203.91
2023-02-02T16:28:23.009Z,100210.63
2023-02-02T16:30:53.483Z,100209.86
2023-02-02T16:33:38.433Z,100217.40
2023-02-02T16:36:25.510Z,100219.17
2023-02-02T16:38:55.399Z,100227.03
2023-02-02T16:41:33.991Z,100235.61
2023-02-02T16:44:30.905Z,100242.06
2023-02-02T16:46:58.726Z,100246.44
2023-02-02T16:49:26.978Z,100250.42
2023-02-02T16:52:13.157Z,100252.69
2023-02-02T16:54:44.910Z,100254.17
2023-02-02T16:57:19.011Z,100257.11
2023-02-02T16:59:52.320Z,100261.58
2023-02-02T17:02:36.147Z,100264.35
2023-02-02T17:05:10.163Z,100263.77
2023-02-02T17:07:37.786Z,100265.28
2023-02-02T17:10:16.476Z,100271.17
2023-02-02T17:12:46.011Z,100284.21
2023-02-02T17:15:15.766Z,100286.95
2023-02-02T17:17:55.631Z,100295.63
2023-02-02T17:20:23.479Z,100300.64
2023-02-02T17:23:03.913Z,100309.00
2023-02-02T17:25:36.558Z,100314.40
2023-02-02T17:28:11.051Z,100322.42
2023-02-02T17:30:42.881Z,100328.17
2023-02-02T17:33:15.015Z,100338.99
2023-02-02T17:35:54.504Z,100347.37
2023-02-02T17:38:23.658Z,100347.19
2023-02-02T17:40:51.097Z,100353.09
2023-02-02T17:43:17.797Z,100352.41
2023-02-02T17:45:44.898Z,100356.75
2023-02-02T17:48:13.156Z,100364.23
2023-02-02T17:50:40.991Z,100372.09
2023-02-02T17:53:13.863Z,100381.20
2023-02-02T17:55:43.222Z,100391.48
2023-02-02T17:58:12.795Z,100394.28
2023-02-02T18:00:47.907Z,100400.56
2023-02-02T18:03:23.323Z,100407.02
2023-02-02T18:05:50.630Z,100413.01
2023-02-02T18:08:18.355Z,100424.00
2023-02-02T18:10:45.189Z,100421.44
2023-02-02T18:13:15.676Z,100426.52
2023-02-02T18:15:43.271Z,100435.56
2023-02-02T18:18:13.864Z,100439.58
2023-02-02T18:20:49.087Z,100444.98
2023-02-02T18:23:17.587Z,100448.60
2023-02-02T18:25:44.711Z,100450.34
2023-02-02T18:28:13.343Z,100455.90
2023-02-02T18:30:41.300Z,100445.73
2023-02-02T18:33:11.268Z,100446.45
2023-02-02T18:35:45.826Z,100461.52
2023-02-02T18:38:14.063Z,100467.58
2023-02-02T18:40:41.286Z,100468.65
2023-02-02T18:43:08.133Z,100476.82
2023-02-02T18:45:35.902Z,100485.70
2023-02-02T18:48:02.570Z,100492.31
2023-02-02T18:50:29.261Z,100494.58
2023-02-02T18:52:56.148Z,100498.77
2023-02-02T18:55:22.821Z,100499.82
2023-02-02T18:57:49.707Z,100503.88
2023-02-02T19:00:16.655Z,100509.50
2023-02-02T19:02:43.417Z,100515.98
2023-02-02T19:05:29.049Z,100518.63
2023-02-02T19:07:55.965Z,100510.83
2023-02-02T19:10:24.305Z,100535.92
2023-02-02T19:13:09.953Z,100544.61
2023-02-02T19:15:39.008Z,100545.71
2023-02-02T19:18:19.079Z,100555.50
2023-02-02T19:20:47.566Z,100558.98
2023-02-02T19:23:41.494Z,100564.73
2023-02-02T19:26:25.050Z,100567.66
2023-02-02T19:28:53.391Z,100574.63
2023-02-02T19:31:21.845Z,100577.55
2023-02-02T19:33:53.832Z,100581.95
2023-02-02T19:36:23.112Z,100592.38
2023-02-02T19:39:15.685Z,100591.71
2023-02-02T19:41:42.689Z,100598.15
2023-02-02T19:44:16.274Z,100602.84
2023-02-02T19:46:45.420Z,100609.34
2023-02-02T19:49:33.856Z,100615.50
2023-02-02T19:52:03.483Z,100620.52
2023-02-02T19:54:41.581Z,100627.48
2023-02-02T19:57:38.076Z,100632.56
2023-02-02T20:00:30.720Z,100639.20
2023-02-02T20:03:06.986Z,100646.89
2023-02-02T20:05:44.060Z,100655.97
2023-02-02T20:08:39.445Z,100668.02
2023-02-02T20:11:37.651Z,100665.50
2023-02-02T20:14:28.865Z,100674.73
2023-02-02T20:17:13.628Z,100678.81
2023-02-02T20:19:43.432Z,100679.21
2023-02-02T20:22:32.256Z,100668.29
2023-02-02T20:25:05.870Z,100679.80
2023-02-02T20:27:33.644Z,100691.81
2023-02-02T20:30:23.050Z,100699.27
2023-02-02T20:32:54.699Z,100704.60
2023-02-02T20:35:39.246Z,100708.73
2023-02-02T20:38:37.553Z,100715.64
2023-02-02T20:41:05.827Z,100708.27
2023-02-02T20:43:34.605Z,100719.46
2023-02-02T20:46:01.359Z,100728.30
2023-02-02T20:48:28.915Z,100727.70
2023-02-02T20:50:55.744Z,100734.23
2023-02-02T20:53:22.572Z,100738.53
2023-02-02T20:55:49.767Z,100746.46
2023-02-02T20:58:16.680Z,100755.05
2023-02-02T21:00:43.566Z,100758.25
2023-02-02T21:03:12.944Z,100747.53
2023-02-02T21:05:39.942Z,100768.66
2023-02-02T21:08:06.791Z,100776.23
2023-02-02T21:10:34.112Z,100779.91
2023-02-02T21:13:01.303Z,100773.63
2023-02-02T21:15:28.389Z,100783.23
2023-02-02T21:17:55.708Z,100789.33
2023-02-02T21:20:22.727Z,100794.23
2023-02-02T21:22:49.506Z,100796.34
2023-02-02T21:25:16.491Z,100802.83
2023-02-02T21:27:44.127Z,100803.55
2023-02-02T21:30:13.613Z,100808.83
2023-02-02T21:32:40.512Z,100811.65
2023-02-02T21:35:07.618Z,100816.39
2023-02-02T21:37:36.792Z,100821.98
2023-02-02T21:40:12.385Z,100823.07
2023-02-02T21:42:44.781Z,100821.17
2023-02-02T21:45:36.803Z,100831.07
2023-02-02T21:48:22.427Z,100829.56
2023-02-02T21:50:49.148Z,100841.77
2023-02-02T21:53:23.203Z,100842.19
2023-02-02T21:55:54.988Z,100847.63
2023-02-02T21:58:39.312Z,100853.05
2023-02-02T22:01:21.322Z,100857.27
2023-02-02T22:03:49.686Z,100860.40
2023-02-02T22:06:26.923Z,100862.15
2023-02-02T22:09:13.484Z,100864.95
2023-02-02T22:12:11.104Z,100872.30
2023-02-02T22:14:40.262Z,100871.08
2023-02-02T22:17:28.963Z,100877.14
2023-02-02T22:20:02.269Z,100888.09
2023-02-02T22:22:35.477Z,100887.39
2023-02-02T22:25:20.334Z,100884.41
2023-02-02T22:27:50.745Z,100881.98
2023-02-02T22:30:39.329Z,100879.18
2023-02-02T22:33:08.617Z,100883.86
2023-02-02T22:35:36.299Z,100881.96
2023-02-02T22:38:04.245Z,100885.11
2023-02-02T22:40:31.092Z,100889.67
2023-02-02T22:43:01.132Z,100890.05
2023-02-02T22:45:28.428Z,100897.33
2023-02-02T22:47:55.460Z,100903.09
2023-02-02T22:50:25.217Z,100905.70
2023-02-02T22:52:52.319Z,100905.23
2023-02-02T22:55:19.539Z,100909.73
2023-02-02T22:57:46.529Z,100913.23
2023-02-02T23:00:16.876Z,100916.92
2023-02-02T23:02:43.822Z,100918.88
2023-02-02T23:05:14.425Z,100921.48
2023-02-02T23:07:45.119Z,100925.52
2023-02-02T23:10:14.202Z,100931.48
2023-02-02T23:12:42.290Z,100938.09
2023-02-02T23:15:10.381Z,100942.83
2023-02-02T23:17:37.232Z,100943.35
2023-02-02T23:20:11.890Z,100949.63
2023-02-02T23:22:38.707Z,100955.20
2023-02-02T23:25:06.052Z,100957.46
2023-02-02T23:27:32.825Z,100965.98
2023-02-02T23:29:59.559Z,100967.39
2023-02-02T23:32:26.351Z,100967.55
